sensor_id;sensor_type;location;lat;lon;timestamp;pressure;altitude;pressure_sealevel;temperature;humidity
41947;BME280;27638;42.184;24.848;2022-10-15T00:02:23;100157.31;;;15.01;100.00
41947;BME280;27638;42.184;24.848;2022-10-15T00:04:48;100154.13;;;14.83;100.00
41947;BME280;27638;42.184;24.848;2022-10-15T00:07:13;100155.03;;;14.76;100.00
41947;BME280;27638;42.184;24.848;2022-10-15T00:09:39;100154.31;;;14.82;100.00
41947;BME280;27638;42.184;24.848;2022-10-15T00:12:04;100148.00;;;14.60;100.00
41947;BME280;27638;42.184;24.848;2022-10-15T00:14:30;100156.47;;;14.63;100.00
41947;BME280;27638;42.184;24.848;2022-10-15T00:16:55;100153.69;;;14.57;100.00
41947;BME280;27638;42.184;24.848;2022-10-15T00:19:20;100151.78;;;14.65;100.00
41947;BME280;27638;42.184;24.848;2022-10-15T00:21:46;100148.69;;;14.77;100.00
41947;BME280;27638;42.184;24.848;2022-10-15T00:24:11;100144.81;;;15.02;100.00
41947;BME280;27638;42.184;24.848;2022-10-15T00:26:36;100148.19;;;14.96;100.00
41947;BME280;27638;42.184;24.848;2022-10-15T00:29:02;100141.75;;;14.90;100.00
41947;BME280;27638;42.184;24.848;2022-10-15T00:31:29;100147.53;;;14.94;100.00
41947;BME280;27638;42.184;24.848;2022-10-15T00:33:55;100144.44;;;15.05;100.00
41947;BME280;27638;42.184;24.848;2022-10-15T00:36:22;100137.34;;;14.97;100.00
41947;BME280;27638;42.184;24.848;2022-10-15T00:38:48;100134.31;;;15.00;100.00
41947;BME280;27638;42.184;24.848;2022-10-15T00:41:18;100147.16;;;14.82;100.00
41947;BME280;27638;42.184;24.848;2022-10-15T00:46:22;100133.81;;;14.82;100.00
41947;BME280;27638;42.184;24.848;2022-10-15T00:48:49;100137.88;;;14.93;100.00
41947;BME280;27638;42.184;24.848;2022-10-15T00:51:16;100138.81;;;15.00;100.00
41947;BME280;27638;42.184;24.848;2022-10-15T00:53:42;100130.06;;;14.91;100.00
41947;BME280;27638;42.184;24.848;2022-10-15T00:56:07;100132.69;;;15.14;100.00
41947;BME280;27638;42.184;24.848;2022-10-15T00:58:33;100130.94;;;15.21;100.00
41947;BME280;27638;42.184;24.848;2022-10-15T01:00:59;100124.97;;;15.19;100.00
41947;BME280;27638;42.184;24.848;2022-10-15T01:03:24;100126.63;;;15.20;100.00
41947;BME280;27638;42.184;24.848;2022-10-15T01:05:50;100131.94;;;15.06;100.00
41947;BME280;27638;42.184;24.848;2022-10-15T01:08:17;100122.94;;;15.21;100.00
41947;BME280;27638;42.184;24.848;2022-10-15T01:10:49;100114.00;;;15.14;100.00
41947;BME280;27638;42.184;24.848;2022-10-15T01:16:15;100123.41;;;15.40;100.00
41947;BME280;27638;42.184;24.848;2022-10-15T01:26:33;100127.91;;;15.24;100.00
41947;BME280;27638;42.184;24.848;2022-10-15T01:31:39;100125.22;;;15.10;100.00
41947;BME280;27638;42.184;24.848;2022-10-15T01:36:57;100124.66;;;14.99;100.00
41947;BME280;27638;42.184;24.848;2022-10-15T01:39:30;100125.16;;;15.18;100.00
41947;BME280;27638;42.184;24.848;2022-10-15T01:42:06;100122.00;;;15.14;100.00
41947;BME280;27638;42.184;24.848;2022-10-15T01:44:37;100126.97;;;15.17;100.00
41947;BME280;27638;42.184;24.848;2022-10-15T01:47:05;100134.25;;;15.23;100.00
41947;BME280;27638;42.184;24.848;2022-10-15T01:49:33;100134.34;;;15.30;100.00
41947;BME280;27638;42.184;24.848;2022-10-15T01:52:04;100142.81;;;15.33;100.00
41947;BME280;27638;42.184;24.848;2022-10-15T01:54:31;100132.88;;;15.27;100.00
41947;BME280;27638;42.184;24.848;2022-10-15T01:56:56;100131.84;;;15.14;100.00
41947;BME280;27638;42.184;24.848;2022-10-15T01:59:23;100130.63;;;15.01;100.00
41947;BME280;27638;42.184;24.848;2022-10-15T02:01:50;100124.28;;;15.02;100.00
41947;BME280;27638;42.184;24.848;2022-10-15T02:04:22;100123.66;;;15.00;100.00
41947;BME280;27638;42.184;24.848;2022-10-15T02:06:49;100130.19;;;14.98;100.00
41947;BME280;27638;42.184;24.848;2022-10-15T02:09:31;100135.25;;;15.08;100.00
41947;BME280;27638;42.184;24.848;2022-10-15T02:14:52;100123.97;;;14.83;100.00
41947;BME280;27638;42.184;24.848;2022-10-15T02:17:20;100130.75;;;14.71;100.00
41947;BME280;27638;42.184;24.848;2022-10-15T02:19:50;100135.97;;;14.64;100.00
41947;BME280;27638;42.184;24.848;2022-10-15T02:22:18;100138.28;;;14.67;100.00
41947;BME280;27638;42.184;24.848;2022-10-15T02:24:49;100127.97;;;14.64;100.00
41947;BME280;27638;42.184;24.848;2022-10-15T02:27:16;100121.53;;;14.58;100.00
41947;BME280;27638;42.184;24.848;2022-10-15T02:29:42;100130.09;;;14.68;100.00
41947;BME280;27638;42.184;24.848;2022-10-15T02:32:09;100131.34;;;14.81;100.00
41947;BME280;27638;42.184;24.848;2022-10-15T02:34:36;100129.19;;;14.76;100.00
41947;BME280;27638;42.184;24.848;2022-10-15T02:37:02;100132.84;;;14.60;100.00
41947;BME280;27638;42.184;24.848;2022-10-15T02:39:28;100134.03;;;14.50;100.00
41947;BME280;27638;42.184;24.848;2022-10-15T02:41:53;100130.72;;;14.48;100.00
41947;BME280;27638;42.184;24.848;2022-10-15T02:44:19;100130.63;;;14.64;100.00
41947;BME280;27638;42.184;24.848;2022-10-15T02:46:45;100123.66;;;14.63;100.00
41947;BME280;27638;42.184;24.848;2022-10-15T02:49:10;100132.84;;;14.60;100.00
41947;BME280;27638;42.184;24.848;2022-10-15T02:51:35;100122.94;;;14.69;100.00
41947;BME280;27638;42.184;24.848;2022-10-15T02:54:01;100121.75;;;14.72;100.00
41947;BME280;27638;42.184;24.848;2022-10-15T02:56:27;100125.31;;;14.64;100.00
41947;BME280;27638;42.184;24.848;2022-10-15T02:58:53;100130.66;;;14.56;100.00
41947;BME280;27638;42.184;24.848;2022-10-15T03:01:18;100131.28;;;14.66;100.00
41947;BME280;27638;42.184;24.848;2022-10-15T03:03:43;100125.66;;;14.61;100.00
41947;BME280;27638;42.184;24.848;2022-10-15T03:06:09;100136.25;;;14.69;100.00
41947;BME280;27638;42.184;24.848;2022-10-15T03:08:34;100129.56;;;14.73;100.00
41947;BME280;27638;42.184;24.848;2022-10-15T03:11:00;100131.03;;;14.53;100.00
41947;BME280;27638;42.184;24.848;2022-10-15T03:13:25;100129.16;;;14.61;100.00
41947;BME280;27638;42.184;24.848;2022-10-15T03:15:51;100138.72;;;14.48;100.00
41947;BME280;27638;42.184;24.848;2022-10-15T03:18:16;100130.56;;;14.72;100.00
41947;BME280;27638;42.184;24.848;2022-10-15T03:20:41;100138.16;;;14.60;100.00
41947;BME280;27638;42.184;24.848;2022-10-15T03:23:07;100132.03;;;14.52;100.00
41947;BME280;27638;42.184;24.848;2022-10-15T03:25:32;100141.31;;;14.56;100.00
41947;BME280;27638;42.184;24.848;2022-10-15T03:27:57;100139.91;;;14.45;100.00
41947;BME280;27638;42.184;24.848;2022-10-15T03:30:23;100136.72;;;14.50;100.00
41947;BME280;27638;42.184;24.848;2022-10-15T03:32:48;100128.75;;;14.42;100.00
41947;BME280;27638;42.184;24.848;2022-10-15T03:35:13;100140.03;;;14.52;100.00
41947;BME280;27638;42.184;24.848;2022-10-15T03:37:39;100135.72;;;14.51;100.00
41947;BME280;27638;42.184;24.848;2022-10-15T03:40:04;100140.66;;;14.62;100.00
41947;BME280;27638;42.184;24.848;2022-10-15T03:42:29;100152.13;;;14.62;100.00
41947;BME280;27638;42.184;24.848;2022-10-15T03:44:55;100143.44;;;14.37;100.00
41947;BME280;27638;42.184;24.848;2022-10-15T03:47:20;100146.53;;;14.49;100.00
41947;BME280;27638;42.184;24.848;2022-10-15T03:49:45;100142.59;;;14.68;100.00
41947;BME280;27638;42.184;24.848;2022-10-15T03:52:11;100138.97;;;14.84;100.00
41947;BME280;27638;42.184;24.848;2022-10-15T03:54:36;100139.91;;;14.91;100.00
41947;BME280;27638;42.184;24.848;2022-10-15T03:57:01;100137.59;;;14.88;100.00
41947;BME280;27638;42.184;24.848;2022-10-15T03:59:27;100137.38;;;14.75;100.00
41947;BME280;27638;42.184;24.848;2022-10-15T04:01:52;100137.88;;;14.93;100.00
41947;BME280;27638;42.184;24.848;2022-10-15T04:04:17;100140.47;;;15.01;100.00
41947;BME280;27638;42.184;24.848;2022-10-15T04:06:42;100130.31;;;14.82;100.00
41947;BME280;27638;42.184;24.848;2022-10-15T04:09:11;100131.94;;;14.68;100.00
41947;BME280;27638;42.184;24.848;2022-10-15T04:11:37;100140.88;;;14.75;100.00
41947;BME280;27638;42.184;24.848;2022-10-15T04:14:02;100142.47;;;14.84;100.00
41947;BME280;27638;42.184;24.848;2022-10-15T04:16:27;100147.28;;;14.66;100.00
41947;BME280;27638;42.184;24.848;2022-10-15T04:18:52;100147.66;;;14.55;100.00
41947;BME280;27638;42.184;24.848;2022-10-15T04:21:18;100148.50;;;14.55;100.00
41947;BME280;27638;42.184;24.848;2022-10-15T04:23:43;100148.50;;;14.55;100.00
41947;BME280;27638;42.184;24.848;2022-10-15T04:26:08;100144.91;;;14.71;100.00
41947;BME280;27638;42.184;24.848;2022-10-15T04:28:34;100143.03;;;14.57;100.00
41947;BME280;27638;42.184;24.848;2022-10-15T04:31:00;100143.69;;;14.51;100.00
41947;BME280;27638;42.184;24.848;2022-10-15T04:33:25;100144.81;;;14.56;100.00
41947;BME280;27638;42.184;24.848;2022-10-15T04:35:58;100112.75;;;14.42;100.00
41947;BME280;27638;42.184;24.848;2022-10-15T04:38:23;100143.34;;;14.54;100.00
41947;BME280;27638;42.184;24.848;2022-10-15T04:40:48;100142.00;;;14.58;100.00
41947;BME280;27638;42.184;24.848;2022-10-15T04:43:14;100142.69;;;14.52;100.00
41947;BME280;27638;42.184;24.848;2022-10-15T04:45:39;100143.75;;;14.43;100.00
41947;BME280;27638;42.184;24.848;2022-10-15T04:48:05;100148.66;;;14.62;100.00
41947;BME280;27638;42.184;24.848;2022-10-15T04:50:30;100150.31;;;14.63;100.00
41947;BME280;27638;42.184;24.848;2022-10-15T04:52:55;100150.16;;;14.56;100.00
41947;BME280;27638;42.184;24.848;2022-10-15T04:55:20;100154.69;;;14.79;100.00
41947;BME280;27638;42.184;24.848;2022-10-15T04:57:46;100160.19;;;14.77;100.00
41947;BME280;27638;42.184;24.848;2022-10-15T05:00:11;100149.44;;;14.85;100.00
41947;BME280;27638;42.184;24.848;2022-10-15T05:02:40;100156.69;;;14.77;100.00
41947;BME280;27638;42.184;24.848;2022-10-15T05:05:05;100155.22;;;14.74;100.00
41947;BME280;27638;42.184;24.848;2022-10-15T05:07:30;100158.88;;;14.73;100.00
41947;BME280;27638;42.184;24.848;2022-10-15T05:09:56;100156.75;;;14.68;100.00
41947;BME280;27638;42.184;24.848;2022-10-15T05:12:21;100161.25;;;14.68;100.00
41947;BME280;27638;42.184;24.848;2022-10-15T05:14:46;100155.31;;;14.81;100.00
41947;BME280;27638;42.184;24.848;2022-10-15T05:17:12;100164.56;;;14.93;100.00
41947;BME280;27638;42.184;24.848;2022-10-15T05:19:37;100172.84;;;14.98;100.00
41947;BME280;27638;42.184;24.848;2022-10-15T05:22:02;100167.41;;;14.91;100.00
41947;BME280;27638;42.184;24.848;2022-10-15T05:24:27;100160.16;;;15.00;100.00
41947;BME280;27638;42.184;24.848;2022-10-15T05:26:53;100171.31;;;14.81;100.00
41947;BME280;27638;42.184;24.848;2022-10-15T05:29:18;100168.94;;;14.86;100.00
41947;BME280;27638;42.184;24.848;2022-10-15T05:31:43;100170.56;;;14.72;100.00
41947;BME280;27638;42.184;24.848;2022-10-15T05:34:10;100170.41;;;14.43;100.00
41947;BME280;27638;42.184;24.848;2022-10-15T05:36:36;100175.19;;;14.47;100.00
41947;BME280;27638;42.184;24.848;2022-10-15T05:39:03;100176.03;;;14.48;100.00
41947;BME280;27638;42.184;24.848;2022-10-15T05:41:28;100179.78;;;14.61;100.00
41947;BME280;27638;42.184;24.848;2022-10-15T05:43:54;100181.22;;;14.72;100.00
41947;BME280;27638;42.184;24.848;2022-10-15T05:46:20;100187.19;;;14.74;100.00
41947;BME280;27638;42.184;24.848;2022-10-15T05:48:49;100189.56;;;14.69;100.00
41947;BME280;27638;42.184;24.848;2022-10-15T05:51:15;100192.50;;;14.51;100.00
41947;BME280;27638;42.184;24.848;2022-10-15T05:53:41;100193.59;;;14.65;100.00
41947;BME280;27638;42.184;24.848;2022-10-15T05:56:07;100191.31;;;14.54;100.00
41947;BME280;27638;42.184;24.848;2022-10-15T05:58:33;100198.34;;;14.47;100.00
41947;BME280;27638;42.184;24.848;2022-10-15T06:01:00;100198.94;;;14.65;100.00
41947;BME280;27638;42.184;24.848;2022-10-15T06:03:25;100201.66;;;14.80;100.00
41947;BME280;27638;42.184;24.848;2022-10-15T06:05:51;100203.25;;;14.89;100.00
41947;BME280;27638;42.184;24.848;2022-10-15T06:08:17;100205.50;;;15.00;100.00
41947;BME280;27638;42.184;24.848;2022-10-15T06:10:43;100200.13;;;15.23;100.00
41947;BME280;27638;42.184;24.848;2022-10-15T06:13:08;100196.81;;;15.21;100.00
41947;BME280;27638;42.184;24.848;2022-10-15T06:15:33;100200.69;;;15.33;100.00
41947;BME280;27638;42.184;24.848;2022-10-15T06:17:59;100205.28;;;15.24;100.00
41947;BME280;27638;42.184;24.848;2022-10-15T06:20:25;100210.97;;;15.21;100.00
41947;BME280;27638;42.184;24.848;2022-10-15T06:22:50;100208.50;;;15.34;100.00
41947;BME280;27638;42.184;24.848;2022-10-15T06:25:20;100213.63;;;15.21;100.00
41947;BME280;27638;42.184;24.848;2022-10-15T06:27:45;100212.19;;;15.33;100.00
41947;BME280;27638;42.184;24.848;2022-10-15T06:30:10;100214.69;;;15.50;100.00
41947;BME280;27638;42.184;24.848;2022-10-15T06:32:36;100217.44;;;15.42;100.00
41947;BME280;27638;42.184;24.848;2022-10-15T06:35:01;100223.47;;;15.58;100.00
41947;BME280;27638;42.184;24.848;2022-10-15T06:37:27;100222.81;;;15.56;100.00
41947;BME280;27638;42.184;24.848;2022-10-15T06:39:53;100225.00;;;15.53;100.00
41947;BME280;27638;42.184;24.848;2022-10-15T06:42:18;100226.84;;;15.60;100.00
41947;BME280;27638;42.184;24.848;2022-10-15T06:44:43;100230.44;;;15.68;100.00
41947;BME280;27638;42.184;24.848;2022-10-15T06:47:09;100227.47;;;15.92;99.80
41947;BME280;27638;42.184;24.848;2022-10-15T06:49:34;100228.47;;;16.20;98.45
41947;BME280;27638;42.184;24.848;2022-10-15T06:51:59;100232.06;;;16.27;97.08
41947;BME280;27638;42.184;24.848;2022-10-15T06:54:24;100234.16;;;16.32;95.50
41947;BME280;27638;42.184;24.848;2022-10-15T06:56:50;100232.91;;;16.49;94.42
41947;BME280;27638;42.184;24.848;2022-10-15T06:59:15;100239.81;;;16.58;94.54
41947;BME280;27638;42.184;24.848;2022-10-15T07:01:40;100241.50;;;16.96;93.86
41947;BME280;27638;42.184;24.848;2022-10-15T07:04:06;100245.72;;;17.33;91.14
41947;BME280;27638;42.184;24.848;2022-10-15T07:06:33;100230.88;;;17.58;90.49
41947;BME280;27638;42.184;24.848;2022-10-15T07:09:00;100233.16;;;17.82;88.25
41947;BME280;27638;42.184;24.848;2022-10-15T07:11:25;100232.69;;;17.72;87.69
41947;BME280;27638;42.184;24.848;2022-10-15T07:13:50;100235.59;;;17.77;86.65
41947;BME280;27638;42.184;24.848;2022-10-15T07:16:16;100229.75;;;18.02;87.62
41947;BME280;27638;42.184;24.848;2022-10-15T07:18:41;100238.66;;;18.09;86.21
41947;BME280;27638;42.184;24.848;2022-10-15T07:21:06;100235.84;;;18.24;84.92
41947;BME280;27638;42.184;24.848;2022-10-15T07:23:33;100232.00;;;17.98;86.99
41947;BME280;27638;42.184;24.848;2022-10-15T07:25:58;100243.00;;;18.10;85.53
41947;BME280;27638;42.184;24.848;2022-10-15T07:28:24;100236.94;;;18.42;83.63
41947;BME280;27638;42.184;24.848;2022-10-15T07:30:50;100241.75;;;18.60;83.39
41947;BME280;27638;42.184;24.848;2022-10-15T07:33:15;100241.22;;;18.78;81.79
41947;BME280;27638;42.184;24.848;2022-10-15T07:35:40;100240.53;;;18.63;81.31
41947;BME280;27638;42.184;24.848;2022-10-15T07:38:06;100239.78;;;18.75;80.30
41947;BME280;27638;42.184;24.848;2022-10-15T07:40:31;100243.69;;;18.73;81.00
41947;BME280;27638;42.184;24.848;2022-10-15T07:42:57;100238.56;;;18.78;81.08
41947;BME280;27638;42.184;24.848;2022-10-15T07:45:23;100242.28;;;18.90;80.72
41947;BME280;27638;42.184;24.848;2022-10-15T07:47:48;100241.22;;;18.78;79.86
41947;BME280;27638;42.184;24.848;2022-10-15T07:50:14;100239.44;;;18.44;81.12
41947;BME280;27638;42.184;24.848;2022-10-15T07:52:39;100231.75;;;18.82;80.32
41947;BME280;27638;42.184;24.848;2022-10-15T07:55:05;100229.63;;;18.64;79.51
41947;BME280;27638;42.184;24.848;2022-10-15T07:57:30;100227.13;;;18.63;79.39
41947;BME280;27638;42.184;24.848;2022-10-15T07:59:56;100230.91;;;18.75;78.99
41947;BME280;27638;42.184;24.848;2022-10-15T08:02:21;100227.00;;;18.77;78.99
41947;BME280;27638;42.184;24.848;2022-10-15T08:04:46;100244.34;;;18.81;78.37
41947;BME280;27638;42.184;24.848;2022-10-15T08:07:12;100235.25;;;18.76;79.08
41947;BME280;27638;42.184;24.848;2022-10-15T08:09:37;100229.06;;;18.75;78.42
41947;BME280;27638;42.184;24.848;2022-10-15T08:12:03;100232.16;;;18.79;77.54
41947;BME280;27638;42.184;24.848;2022-10-15T08:14:29;100223.06;;;18.80;77.99
41947;BME280;27638;42.184;24.848;2022-10-15T08:16:54;100220.00;;;19.03;77.91
41947;BME280;27638;42.184;24.848;2022-10-15T08:19:19;100224.34;;;18.97;78.06
41947;BME280;27638;42.184;24.848;2022-10-15T08:21:45;100224.31;;;18.84;76.79
41947;BME280;27638;42.184;24.848;2022-10-15T08:24:10;100226.22;;;19.10;74.67
41947;BME280;27638;42.184;24.848;2022-10-15T08:26:35;100226.41;;;19.22;74.16
41947;BME280;27638;42.184;24.848;2022-10-15T08:29:01;100229.50;;;19.19;73.51
41947;BME280;27638;42.184;24.848;2022-10-15T08:31:26;100233.84;;;19.46;72.87
41947;BME280;27638;42.184;24.848;2022-10-15T08:33:51;100222.91;;;19.61;72.71
41947;BME280;27638;42.184;24.848;2022-10-15T08:36:17;100222.69;;;19.42;72.06
41947;BME280;27638;42.184;24.848;2022-10-15T08:38:42;100223.72;;;19.61;71.75
41947;BME280;27638;42.184;24.848;2022-10-15T08:41:51;100229.72;;;19.50;68.53
41947;BME280;27638;42.184;24.848;2022-10-15T08:43:56;100227.66;;;19.59;69.25
41947;BME280;27638;42.184;24.848;2022-10-15T08:46:44;100236.09;;;19.89;68.53
41947;BME280;27638;42.184;24.848;2022-10-15T08:49:13;100232.19;;;19.85;67.40
41947;BME280;27638;42.184;24.848;2022-10-15T08:51:43;100230.72;;;19.75;68.78
41947;BME280;27638;42.184;24.848;2022-10-15T08:54:12;100241.28;;;19.84;68.27
41947;BME280;27638;42.184;24.848;2022-10-15T08:56:42;100242.69;;;19.99;68.89
41947;BME280;27638;42.184;24.848;2022-10-15T09:01:51;100243.72;;;19.98;66.65
41947;BME280;27638;42.184;24.848;2022-10-15T09:07:13;100244.78;;;19.91;67.32
41947;BME280;27638;42.184;24.848;2022-10-15T09:09:43;100243.94;;;19.97;66.59
41947;BME280;27638;42.184;24.848;2022-10-15T09:14:43;100249.34;;;19.70;66.57
41947;BME280;27638;42.184;24.848;2022-10-15T09:17:15;100248.53;;;19.83;64.52
41947;BME280;27638;42.184;24.848;2022-10-15T09:19:43;100243.97;;;19.90;63.42
41947;BME280;27638;42.184;24.848;2022-10-15T09:22:11;100242.50;;;19.94;64.49
41947;BME280;27638;42.184;24.848;2022-10-15T09:24:38;100248.00;;;20.19;63.73
41947;BME280;27638;42.184;24.848;2022-10-15T09:27:26;100237.84;;;20.21;61.75
41947;BME280;27638;42.184;24.848;2022-10-15T09:29:50;100243.03;;;20.23;60.69
41947;BME280;27638;42.184;24.848;2022-10-15T09:42:52;100241.94;;;20.44;56.40
41947;BME280;27638;42.184;24.848;2022-10-15T09:45:19;100233.34;;;20.15;56.81
41947;BME280;27638;42.184;24.848;2022-10-15T09:47:47;100236.59;;;20.24;57.02
41947;BME280;27638;42.184;24.848;2022-10-15T09:50:13;100234.00;;;20.04;56.73
41947;BME280;27638;42.184;24.848;2022-10-15T09:55:25;100230.13;;;19.87;58.48
41947;BME280;27638;42.184;24.848;2022-10-15T09:57:55;100225.09;;;20.03;56.76
41947;BME280;27638;42.184;24.848;2022-10-15T10:00:22;100229.03;;;20.07;55.52
41947;BME280;27638;42.184;24.848;2022-10-15T10:03:04;100225.34;;;19.89;56.33
41947;BME280;27638;42.184;24.848;2022-10-15T10:05:31;100229.84;;;20.08;57.19
41947;BME280;27638;42.184;24.848;2022-10-15T10:08:07;100230.66;;;20.08;57.74
41947;BME280;27638;42.184;24.848;2022-10-15T10:10:33;100222.25;;;19.72;57.01
41947;BME280;27638;42.184;24.848;2022-10-15T10:13:00;100220.63;;;19.71;57.33
41947;BME280;27638;42.184;24.848;2022-10-15T10:15:32;100219.81;;;19.77;58.47
41947;BME280;27638;42.184;24.848;2022-10-15T10:17:58;100217.28;;;19.89;55.71
41947;BME280;27638;42.184;24.848;2022-10-15T10:20:27;100213.78;;;19.75;54.19
41947;BME280;27638;42.184;24.848;2022-10-15T10:22:57;100212.56;;;19.44;55.74
41947;BME280;27638;42.184;24.848;2022-10-15T10:25:27;100214.84;;;19.28;55.94
41947;BME280;27638;42.184;24.848;2022-10-15T10:27:53;100208.44;;;19.35;58.48
41947;BME280;27638;42.184;24.848;2022-10-15T10:30:19;100203.88;;;19.49;57.58
41947;BME280;27638;42.184;24.848;2022-10-15T10:32:45;100201.41;;;19.34;57.49
41947;BME280;27638;42.184;24.848;2022-10-15T10:35:18;100207.41;;;19.56;56.90
41947;BME280;27638;42.184;24.848;2022-10-15T10:37:44;100203.47;;;19.72;56.74
41947;BME280;27638;42.184;24.848;2022-10-15T10:40:52;100196.03;;;19.41;55.84
41947;BME280;27638;42.184;24.848;2022-10-15T10:43:10;100203.50;;;19.26;57.32
41947;BME280;27638;42.184;24.848;2022-10-15T10:45:35;100196.69;;;19.30;58.15
41947;BME280;27638;42.184;24.848;2022-10-15T10:48:17;100191.09;;;19.38;57.87
41947;BME280;27638;42.184;24.848;2022-10-15T10:50:43;100188.41;;;19.38;58.36
41947;BME280;27638;42.184;24.848;2022-10-15T10:53:21;100192.94;;;19.64;56.84
41947;BME280;27638;42.184;24.848;2022-10-15T10:55:48;100184.47;;;19.60;57.56
41947;BME280;27638;42.184;24.848;2022-10-15T10:58:16;100185.72;;;19.58;57.22
41947;BME280;27638;42.184;24.848;2022-10-15T11:00:44;100186.69;;;19.90;53.06
41947;BME280;27638;42.184;24.848;2022-10-15T11:11:25;100178.94;;;20.13;53.68
41947;BME280;27638;42.184;24.848;2022-10-15T11:13:57;100182.91;;;20.04;53.88
41947;BME280;27638;42.184;24.848;2022-10-15T11:24:39;100173.78;;;20.12;54.03
41947;BME280;27638;42.184;24.848;2022-10-15T11:29:40;100167.38;;;20.13;55.22
41947;BME280;27638;42.184;24.848;2022-10-15T11:38:22;100157.22;;;19.57;54.18
41947;BME280;27638;42.184;24.848;2022-10-15T11:43:34;100153.91;;;19.28;54.89
41947;BME280;27638;42.184;24.848;2022-10-15T11:46:02;100144.19;;;19.40;54.27
41947;BME280;27638;42.184;24.848;2022-10-15T11:58:44;100147.50;;;19.56;53.62
41947;BME280;27638;42.184;24.848;2022-10-15T12:03:43;100138.81;;;19.60;53.36
41947;BME280;27638;42.184;24.848;2022-10-15T12:06:14;100144.97;;;19.74;54.65
41947;BME280;27638;42.184;24.848;2022-10-15T12:08:40;100141.66;;;19.72;52.68
41947;BME280;27638;42.184;24.848;2022-10-15T12:11:13;100145.41;;;19.77;53.26
41947;BME280;27638;42.184;24.848;2022-10-15T12:16:25;100147.41;;;19.89;53.05
41947;BME280;27638;42.184;24.848;2022-10-15T12:21:38;100161.94;;;19.61;53.49
41947;BME280;27638;42.184;24.848;2022-10-15T12:24:05;100158.84;;;19.44;52.32
41947;BME280;27638;42.184;24.848;2022-10-15T12:26:34;100141.03;;;19.70;51.22
41947;BME280;27638;42.184;24.848;2022-10-15T12:29:02;100148.50;;;19.68;53.00
41947;BME280;27638;42.184;24.848;2022-10-15T12:31:49;100151.38;;;19.80;54.01
41947;BME280;27638;42.184;24.848;2022-10-15T12:34:24;100147.22;;;19.84;53.02
41947;BME280;27638;42.184;24.848;2022-10-15T12:37:04;100149.69;;;19.92;52.29
41947;BME280;27638;42.184;24.848;2022-10-15T12:39:30;100143.97;;;20.20;52.06
41947;BME280;27638;42.184;24.848;2022-10-15T12:41:57;100143.84;;;20.01;52.74
41947;BME280;27638;42.184;24.848;2022-10-15T12:44:27;100145.69;;;20.07;51.41
41947;BME280;27638;42.184;24.848;2022-10-15T12:46:53;100146.06;;;20.11;50.69
41947;BME280;27638;42.184;24.848;2022-10-15T12:50:04;100152.50;;;20.10;51.58
41947;BME280;27638;42.184;24.848;2022-10-15T12:54:49;100152.59;;;19.90;50.86
41947;BME280;27638;42.184;24.848;2022-10-15T12:59:59;100151.38;;;20.24;51.58
41947;BME280;27638;42.184;24.848;2022-10-15T13:02:43;100150.94;;;19.89;50.97
41947;BME280;27638;42.184;24.848;2022-10-15T13:07:53;100154.72;;;20.20;50.07
41947;BME280;27638;42.184;24.848;2022-10-15T13:10:32;100143.09;;;20.26;49.98
41947;BME280;27638;42.184;24.848;2022-10-15T13:13:05;100151.03;;;20.14;50.45
41947;BME280;27638;42.184;24.848;2022-10-15T13:15:31;100154.94;;;20.18;50.33
41947;BME280;27638;42.184;24.848;2022-10-15T13:17:59;100151.69;;;20.03;50.25
41947;BME280;27638;42.184;24.848;2022-10-15T13:20:30;100149.50;;;20.31;49.43
41947;BME280;27638;42.184;24.848;2022-10-15T13:26:37;100150.78;;;20.22;49.63
41947;BME280;27638;42.184;24.848;2022-10-15T13:28:40;100146.88;;;20.18;50.21
41947;BME280;27638;42.184;24.848;2022-10-15T13:33:41;100150.97;;;20.27;51.10
41947;BME280;27638;42.184;24.848;2022-10-15T13:36:07;100157.63;;;20.18;51.38
41947;BME280;27638;42.184;24.848;2022-10-15T13:38:34;100151.81;;;20.21;51.16
41947;BME280;27638;42.184;24.848;2022-10-15T13:41:00;100150.81;;;20.16;50.58
41947;BME280;27638;42.184;24.848;2022-10-15T13:43:26;100152.69;;;20.15;51.06
41947;BME280;27638;42.184;24.848;2022-10-15T13:45:55;100153.28;;;20.17;50.96
41947;BME280;27638;42.184;24.848;2022-10-15T13:48:22;100157.50;;;20.00;52.04
41947;BME280;27638;42.184;24.848;2022-10-15T13:50:59;100148.44;;;19.94;51.04
41947;BME280;27638;42.184;24.848;2022-10-15T13:53:34;100149.84;;;20.03;51.93
41947;BME280;27638;42.184;24.848;2022-10-15T13:56:01;100145.94;;;19.99;51.89
41947;BME280;27638;42.184;24.848;2022-10-15T13:58:27;100137.06;;;19.92;52.43
41947;BME280;27638;42.184;24.848;2022-10-15T14:00:57;100150.25;;;20.00;51.67
41947;BME280;27638;42.184;24.848;2022-10-15T14:03:25;100143.91;;;19.88;51.39
41947;BME280;27638;42.184;24.848;2022-10-15T14:05:52;100145.94;;;19.93;52.03
41947;BME280;27638;42.184;24.848;2022-10-15T14:08:25;100150.88;;;20.02;51.19
41947;BME280;27638;42.184;24.848;2022-10-15T14:10:51;100145.78;;;19.88;50.65
41947;BME280;27638;42.184;24.848;2022-10-15T14:13:17;100150.88;;;20.02;50.44
41947;BME280;27638;42.184;24.848;2022-10-15T14:18:08;100157.16;;;20.28;49.02
41947;BME280;27638;42.184;24.848;2022-10-15T14:20:34;100153.56;;;20.02;50.06
41947;BME280;27638;42.184;24.848;2022-10-15T14:22:59;100148.69;;;20.24;49.67